Worleytown, Pennsylvania
Current Conditions -  °F | °C
As of 1:53 PM on Thursday 23 Oct 2014 (Local Time) from KHGR Reporting Station
Overcast Overcast  
Wind Chill: 58°   Ceiling: 3800
Heat Index: 58°   Visibility: 10mi
Dew Point: 43°   Wind: 20mph
Humidity: 58%   Direction: 300°WNW
Pressure: 29.91"   Gusts: NA
Location:  39.7874°N, 77.754°W
Report Text: KHGR 231753Z 30017KT 10SM OVC038 14/06 A2991 RMK AO2 PK WND 31026/1707 SLP139 T01440061 10150 20100 58009
Loading
Personal Weather Stations






























Interactive Weather Map
Tropical Storm Tracking
New forecast layout! Learn more

10-Day Weather Forecast

Advertisements
Track Severe Weather on mobile